createdAt,value
2022-12-29T00:01:19.394Z,10.60
2022-12-29T00:03:48.606Z,10.60
2022-12-29T00:06:17.209Z,10.50
2022-12-29T00:08:45.339Z,10.50
2022-12-29T00:11:18.186Z,10.40
2022-12-29T00:14:04.306Z,10.30
2022-12-29T00:16:33.869Z,10.20
2022-12-29T00:19:03.338Z,10.30
2022-12-29T00:21:49.044Z,10.30
2022-12-29T00:24:37.963Z,10.20
2022-12-29T00:27:32.519Z,10.10
2022-12-29T00:30:19.033Z,10.10
2022-12-29T00:33:04.641Z,10.10
2022-12-29T00:35:40.199Z,10.10
2022-12-29T00:38:28.177Z,10.20
2022-12-29T00:41:13.489Z,10.20
2022-12-29T00:44:00.924Z,10.10
2022-12-29T00:46:29.198Z,10.20
2022-12-29T00:49:15.024Z,10.20
2022-12-29T00:51:44.256Z,10.30
2022-12-29T00:54:12.634Z,10.30
2022-12-29T00:56:41.072Z,10.20
2022-12-29T00:59:12.962Z,10.30
2022-12-29T01:01:42.107Z,10.20
2022-12-29T01:04:11.756Z,10.20
2022-12-29T01:06:42.026Z,10.30
2022-12-29T01:09:28.684Z,10.30
2022-12-29T01:11:57.222Z,10.20
2022-12-29T01:14:27.239Z,10.30
2022-12-29T01:16:55.798Z,10.20
2022-12-29T01:19:24.884Z,10.20
2022-12-29T01:21:53.356Z,10.10
2022-12-29T01:24:23.826Z,10.20
2022-12-29T01:26:52.048Z,10.10
2022-12-29T01:29:20.654Z,10.10
2022-12-29T01:31:50.823Z,10.00
2022-12-29T01:34:19.575Z,10.10
2022-12-29T01:36:47.672Z,10.00
2022-12-29T01:39:15.905Z,10.00
2022-12-29T01:41:44.289Z,10.00
2022-12-29T01:44:52.364Z,10.00
2022-12-29T01:47:38.343Z,9.90
2022-12-29T01:50:12.055Z,9.90
2022-12-29T01:52:46.035Z,9.90
2022-12-29T01:55:14.807Z,9.80
2022-12-29T01:57:50.344Z,9.90
2022-12-29T02:00:20.332Z,9.80
2022-12-29T02:02:54.489Z,9.90
2022-12-29T02:05:30.824Z,9.80
2022-12-29T02:07:59.123Z,9.80
2022-12-29T02:10:31.925Z,9.80
2022-12-29T02:12:59.914Z,9.80
2022-12-29T02:15:44.747Z,9.80
2022-12-29T02:18:34.542Z,9.90
2022-12-29T02:21:43.853Z,9.90
2022-12-29T02:24:41.423Z,9.90
2022-12-29T02:27:42.153Z,9.90
2022-12-29T02:30:31.084Z,9.90
2022-12-29T02:33:10.560Z,9.90
2022-12-29T02:35:51.409Z,10.00
2022-12-29T02:38:34.087Z,10.00
2022-12-29T02:41:14.497Z,10.00
2022-12-29T02:43:56.347Z,10.10
2022-12-29T02:46:38.693Z,10.20
2022-12-29T02:49:16.261Z,10.20
2022-12-29T02:51:55.470Z,10.30
2022-12-29T02:54:41.101Z,10.40
2022-12-29T02:57:15.029Z,10.30
2022-12-29T02:59:47.261Z,10.40
2022-12-29T03:02:45.792Z,10.50
2022-12-29T03:05:33.882Z,10.70
2022-12-29T03:08:15.495Z,10.70
2022-12-29T03:10:56.304Z,10.80
2022-12-29T03:13:50.728Z,10.80
2022-12-29T03:16:31.891Z,10.80
2022-12-29T03:19:10.557Z,10.90
2022-12-29T03:22:01.352Z,10.90
2022-12-29T03:24:34.857Z,11.00
2022-12-29T03:27:08.658Z,11.10
2022-12-29T03:29:44.346Z,11.10
2022-12-29T03:32:17.047Z,11.20
2022-12-29T03:34:49.705Z,11.10
2022-12-29T03:37:24.620Z,11.20
2022-12-29T03:39:53.210Z,11.20
2022-12-29T03:42:28.113Z,11.20
2022-12-29T03:44:59.116Z,11.00
2022-12-29T03:47:28.296Z,11.00
2022-12-29T03:49:57.859Z,11.00
2022-12-29T03:52:25.950Z,11.00
2022-12-29T03:54:54.026Z,11.00
2022-12-29T03:57:22.213Z,11.00
2022-12-29T03:59:50.308Z,11.00
2022-12-29T04:02:18.733Z,11.00
2022-12-29T04:04:47.005Z,11.00
2022-12-29T04:07:16.688Z,11.00
2022-12-29T04:09:46.399Z,11.00
2022-12-29T04:12:15.350Z,11.10
2022-12-29T04:14:43.455Z,11.20
2022-12-29T04:17:11.604Z,11.20
2022-12-29T04:19:40.495Z,11.40
2022-12-29T04:22:08.805Z,11.40
2022-12-29T04:24:38.352Z,11.50
2022-12-29T04:27:06.569Z,11.50
2022-12-29T04:29:35.021Z,11.50
2022-12-29T04:32:03.096Z,11.60
2022-12-29T04:34:33.409Z,11.60
2022-12-29T04:37:02.096Z,11.60
2022-12-29T04:39:32.042Z,11.60
2022-12-29T04:42:02.453Z,11.60
2022-12-29T04:44:31.014Z,11.60
2022-12-29T04:46:59.627Z,11.60
2022-12-29T04:49:28.572Z,11.60
2022-12-29T04:51:57.004Z,11.60
2022-12-29T04:54:25.660Z,11.70
2022-12-29T04:56:56.541Z,11.60
2022-12-29T04:59:26.368Z,11.70
2022-12-29T05:01:57.084Z,11.60
2022-12-29T05:04:25.663Z,11.60
2022-12-29T05:06:54.298Z,11.50
2022-12-29T05:09:22.916Z,11.30
2022-12-29T05:11:51.435Z,11.00
2022-12-29T05:14:19.471Z,10.80
2022-12-29T05:16:48.904Z,10.60
2022-12-29T05:19:21.233Z,10.50
2022-12-29T05:21:49.287Z,10.30
2022-12-29T05:24:17.404Z,10.30
2022-12-29T05:26:46.626Z,10.30
2022-12-29T05:29:14.676Z,10.30
2022-12-29T05:31:42.747Z,10.40
2022-12-29T05:34:13.770Z,10.40
2022-12-29T05:36:42.894Z,10.40
2022-12-29T05:39:10.928Z,10.40
2022-12-29T05:41:39.005Z,10.40
2022-12-29T05:44:07.276Z,10.40
2022-12-29T05:46:35.378Z,10.50
2022-12-29T05:49:03.462Z,10.60
2022-12-29T05:51:32.903Z,10.40
2022-12-29T05:54:01.356Z,10.40
2022-12-29T05:56:29.376Z,10.30
2022-12-29T05:58:57.597Z,10.40
2022-12-29T06:01:25.785Z,10.40
2022-12-29T06:03:54.000Z,10.30
2022-12-29T06:06:23.631Z,10.40
2022-12-29T06:08:53.039Z,10.30
2022-12-29T06:11:21.404Z,10.40
2022-12-29T06:13:49.425Z,10.30
2022-12-29T06:16:17.571Z,10.20
2022-12-29T06:18:45.740Z,10.20
2022-12-29T06:21:13.752Z,10.20
2022-12-29T06:23:42.372Z,10.20
2022-12-29T06:26:11.745Z,10.20
2022-12-29T06:28:39.829Z,10.10
2022-12-29T06:31:12.023Z,10.10
2022-12-29T06:33:40.743Z,10.00
2022-12-29T06:36:09.579Z,10.10
2022-12-29T06:38:37.675Z,10.10
2022-12-29T06:41:06.203Z,10.10
2022-12-29T06:43:37.285Z,10.10
2022-12-29T06:46:06.182Z,10.10
2022-12-29T06:48:34.398Z,10.10
2022-12-29T06:51:02.513Z,10.10
2022-12-29T06:53:30.544Z,10.20
2022-12-29T06:55:58.572Z,10.10
2022-12-29T06:58:26.591Z,10.10
2022-12-29T07:00:56.063Z,10.00
2022-12-29T07:03:24.386Z,10.00
2022-12-29T07:05:52.601Z,10.10
2022-12-29T07:08:20.650Z,10.10
2022-12-29T07:10:48.787Z,10.00
2022-12-29T07:13:16.834Z,10.00
2022-12-29T07:15:45.252Z,9.90
2022-12-29T07:18:14.655Z,9.90
2022-12-29T07:20:42.771Z,10.00
2022-12-29T07:23:10.829Z,9.90
2022-12-29T07:25:38.863Z,9.90
2022-12-29T07:28:06.906Z,9.90
2022-12-29T07:30:35.452Z,9.90
2022-12-29T07:33:03.502Z,10.00
2022-12-29T07:35:32.883Z,10.00
2022-12-29T07:38:01.519Z,10.10
2022-12-29T07:40:29.805Z,10.10
2022-12-29T07:42:57.795Z,10.00
2022-12-29T07:45:25.882Z,10.00
2022-12-29T07:47:53.899Z,9.90
2022-12-29T07:50:22.033Z,10.00
2022-12-29T07:52:51.489Z,9.90
2022-12-29T07:55:19.468Z,9.90
2022-12-29T07:57:47.603Z,10.00
2022-12-29T08:00:17.114Z,10.00
2022-12-29T08:02:45.261Z,10.00
2022-12-29T08:05:13.389Z,10.10
2022-12-29T08:07:41.651Z,10.10
2022-12-29T08:10:11.468Z,9.90
2022-12-29T08:12:40.858Z,9.80
2022-12-29T08:15:11.191Z,9.80
2022-12-29T08:17:39.981Z,9.70
2022-12-29T08:20:09.967Z,9.50
2022-12-29T08:22:38.573Z,9.50
2022-12-29T08:25:07.476Z,9.40
2022-12-29T08:27:36.938Z,9.50
2022-12-29T08:30:06.130Z,9.40
2022-12-29T08:32:34.664Z,9.50
2022-12-29T08:35:02.699Z,9.50
2022-12-29T08:37:31.448Z,9.80
2022-12-29T08:40:01.102Z,9.90
2022-12-29T08:42:32.025Z,9.80
2022-12-29T08:45:02.067Z,9.90
2022-12-29T08:47:30.352Z,10.10
2022-12-29T08:49:58.577Z,10.20
2022-12-29T08:52:26.647Z,10.20
2022-12-29T08:54:54.818Z,10.20
2022-12-29T08:57:23.046Z,10.20
2022-12-29T08:59:52.137Z,10.30
2022-12-29T09:02:24.590Z,10.20
2022-12-29T09:04:53.627Z,10.20
2022-12-29T09:07:21.972Z,10.20
2022-12-29T09:09:50.933Z,10.20
2022-12-29T09:12:20.203Z,10.30
2022-12-29T09:14:49.441Z,10.30
2022-12-29T09:17:35.135Z,10.50
2022-12-29T09:20:08.756Z,10.40
2022-12-29T09:22:38.744Z,10.60
2022-12-29T09:25:08.610Z,10.60
2022-12-29T09:27:37.516Z,10.70
2022-12-29T09:30:08.763Z,10.70
2022-12-29T09:32:45.829Z,10.70
2022-12-29T09:35:20.173Z,10.80
2022-12-29T09:38:02.930Z,10.90
2022-12-29T09:40:34.882Z,10.90
2022-12-29T09:43:45.509Z,11.10
2022-12-29T09:46:27.020Z,11.20
2022-12-29T09:49:11.528Z,11.20
2022-12-29T09:51:52.440Z,11.20
2022-12-29T09:54:41.561Z,11.20
2022-12-29T09:57:23.185Z,11.20
2022-12-29T10:00:02.034Z,11.20
2022-12-29T10:02:41.951Z,11.20
2022-12-29T10:05:41.389Z,11.30
2022-12-29T10:08:33.512Z,11.30
2022-12-29T10:11:13.637Z,11.40
2022-12-29T10:14:00.220Z,11.40
2022-12-29T10:16:39.645Z,11.40
2022-12-29T10:19:33.182Z,11.40
2022-12-29T10:22:20.078Z,11.30
2022-12-29T10:24:55.753Z,11.40
2022-12-29T10:27:24.061Z,11.50
2022-12-29T10:29:57.815Z,11.50
2022-12-29T10:32:37.025Z,11.50
2022-12-29T10:35:16.096Z,11.60
2022-12-29T10:37:55.055Z,11.50
2022-12-29T10:40:33.415Z,11.60
2022-12-29T10:43:04.135Z,11.50
2022-12-29T10:45:35.067Z,11.50
2022-12-29T10:48:08.918Z,11.60
2022-12-29T10:50:43.685Z,11.70
2022-12-29T10:53:23.240Z,11.60
2022-12-29T10:55:54.697Z,11.70
2022-12-29T10:58:24.928Z,11.60
2022-12-29T11:00:56.629Z,11.60
2022-12-29T11:04:02.990Z,11.60
2022-12-29T11:06:31.741Z,11.60
2022-12-29T11:09:04.674Z,11.60
2022-12-29T11:11:38.840Z,11.50
2022-12-29T11:14:16.408Z,11.50
2022-12-29T11:16:46.069Z,11.60
2022-12-29T11:19:25.560Z,11.40
2022-12-29T11:21:54.353Z,11.40
2022-12-29T11:24:26.891Z,11.50
2022-12-29T11:27:10.781Z,11.60
2022-12-29T11:29:42.229Z,11.70
2022-12-29T11:32:22.752Z,11.80
2022-12-29T11:34:55.291Z,11.80
2022-12-29T11:37:31.651Z,11.80
2022-12-29T11:40:05.851Z,11.80
2022-12-29T11:42:38.889Z,11.80
2022-12-29T11:45:15.599Z,11.80
2022-12-29T11:47:47.676Z,11.80
2022-12-29T11:50:23.742Z,11.80
2022-12-29T11:53:00.913Z,11.90
2022-12-29T11:55:31.499Z,11.90
2022-12-29T11:58:05.522Z,12.00
2022-12-29T12:00:41.257Z,12.00
2022-12-29T12:03:18.015Z,12.00
2022-12-29T12:05:53.400Z,11.90
2022-12-29T12:08:33.501Z,11.90
2022-12-29T12:11:12.850Z,11.80
2022-12-29T12:13:54.705Z,11.80
2022-12-29T12:16:31.959Z,11.70
2022-12-29T12:19:11.665Z,11.70
2022-12-29T12:21:45.988Z,11.80
2022-12-29T12:24:37.043Z,11.70
2022-12-29T12:27:16.056Z,11.60
2022-12-29T12:29:55.003Z,11.50
2022-12-29T12:32:38.847Z,11.40
2022-12-29T12:35:07.623Z,11.40
2022-12-29T12:38:06.059Z,11.40
2022-12-29T12:41:00.128Z,11.40
2022-12-29T12:43:52.302Z,11.70
2022-12-29T12:47:13.991Z,11.80
2022-12-29T12:50:23.306Z,11.60
2022-12-29T12:53:21.397Z,11.50
2022-12-29T12:56:15.119Z,11.60
2022-12-29T12:58:54.592Z,11.50
2022-12-29T13:01:40.465Z,11.30
2022-12-29T13:04:45.563Z,11.20
2022-12-29T13:07:35.588Z,11.20
2022-12-29T13:10:31.938Z,11.20
2022-12-29T13:13:30.403Z,11.20
2022-12-29T13:16:12.341Z,11.20
2022-12-29T13:18:59.966Z,11.20
2022-12-29T13:22:00.037Z,11.20
2022-12-29T13:24:48.087Z,11.30
2022-12-29T13:27:25.664Z,11.20
2022-12-29T13:30:05.126Z,11.20
2022-12-29T13:32:58.573Z,11.20
2022-12-29T13:35:54.124Z,11.20
2022-12-29T13:38:31.714Z,11.10
2022-12-29T13:41:06.817Z,11.00
2022-12-29T13:43:41.297Z,11.00
2022-12-29T13:46:15.413Z,11.00
2022-12-29T13:48:51.515Z,11.00
2022-12-29T13:51:27.674Z,11.00
2022-12-29T13:54:14.564Z,11.00
2022-12-29T13:56:53.545Z,11.00
2022-12-29T13:59:41.409Z,11.00
2022-12-29T14:02:24.309Z,11.00
2022-12-29T14:05:01.421Z,11.10
2022-12-29T14:07:30.999Z,11.30
2022-12-29T14:10:00.560Z,11.30
2022-12-29T14:12:37.728Z,11.40
2022-12-29T14:15:21.627Z,11.40
2022-12-29T14:18:13.967Z,11.40
2022-12-29T14:20:55.118Z,11.40
2022-12-29T14:23:39.196Z,11.40
2022-12-29T14:26:36.551Z,11.20
2022-12-29T14:29:48.248Z,11.00
2022-12-29T14:32:39.444Z,10.90
2022-12-29T14:35:41.639Z,10.70
2022-12-29T14:38:20.144Z,10.60
2022-12-29T14:40:50.333Z,10.40
2022-12-29T14:43:27.898Z,10.40
2022-12-29T14:46:03.893Z,10.30
2022-12-29T14:48:41.379Z,10.30
2022-12-29T14:51:38.748Z,10.30
2022-12-29T14:54:55.598Z,10.30
2022-12-29T14:57:30.797Z,10.30
2022-12-29T15:00:16.522Z,10.10
2022-12-29T15:02:51.789Z,10.10
2022-12-29T15:05:36.131Z,10.10
2022-12-29T15:08:06.433Z,10.10
2022-12-29T15:10:44.945Z,10.10
2022-12-29T15:13:20.343Z,10.10
2022-12-29T15:15:49.900Z,10.00
2022-12-29T15:18:27.274Z,9.90
2022-12-29T15:20:59.632Z,10.00
2022-12-29T15:23:29.220Z,9.90
2022-12-29T15:26:00.308Z,9.80
2022-12-29T15:28:38.574Z,9.70
2022-12-29T15:31:16.483Z,9.60
2022-12-29T15:33:48.869Z,9.70
2022-12-29T15:36:22.917Z,9.50
2022-12-29T15:38:52.197Z,9.50
2022-12-29T15:41:31.918Z,9.40
2022-12-29T15:44:17.168Z,9.20
2022-12-29T15:46:46.618Z,9.20
2022-12-29T15:49:18.182Z,9.20
2022-12-29T15:51:47.389Z,9.20
2022-12-29T15:54:20.058Z,9.20
2022-12-29T15:56:49.150Z,9.10
2022-12-29T15:59:28.805Z,9.00
2022-12-29T16:02:00.502Z,8.90
2022-12-29T16:04:43.253Z,8.90
2022-12-29T16:07:33.278Z,8.90
2022-12-29T16:10:04.974Z,8.80
2022-12-29T16:12:37.631Z,8.80
2022-12-29T16:15:15.109Z,8.70
2022-12-29T16:17:51.614Z,8.60
2022-12-29T16:20:25.841Z,8.60
2022-12-29T16:22:59.329Z,8.60
2022-12-29T16:25:32.541Z,8.50
2022-12-29T16:28:01.990Z,8.40
2022-12-29T16:30:34.231Z,8.40
2022-12-29T16:33:07.085Z,8.70
2022-12-29T16:35:48.157Z,8.80
2022-12-29T16:38:19.465Z,8.90
2022-12-29T16:40:55.851Z,8.80
2022-12-29T16:43:26.783Z,8.80
2022-12-29T16:46:25.637Z,8.80
2022-12-29T16:48:57.987Z,8.80
2022-12-29T16:51:33.848Z,8.90
2022-12-29T16:54:03.526Z,8.70
2022-12-29T16:56:37.256Z,8.60
2022-12-29T16:59:10.131Z,8.50
2022-12-29T17:01:40.122Z,8.50
2022-12-29T17:04:14.165Z,8.50
2022-12-29T17:06:42.778Z,8.40
2022-12-29T17:09:23.243Z,8.30
2022-12-29T17:12:02.875Z,8.30
2022-12-29T17:14:45.125Z,8.30
2022-12-29T17:17:32.676Z,8.40
2022-12-29T17:20:07.456Z,8.40
2022-12-29T17:22:36.520Z,8.40
2022-12-29T17:25:05.039Z,8.40
2022-12-29T17:27:38.728Z,8.50
2022-12-29T17:30:14.843Z,8.60
2022-12-29T17:32:45.522Z,8.70
2022-12-29T17:35:18.085Z,8.80
2022-12-29T17:37:46.775Z,8.80
2022-12-29T17:40:17.995Z,8.80
2022-12-29T17:42:49.729Z,8.70
2022-12-29T17:45:22.469Z,8.60
2022-12-29T17:47:51.011Z,8.50
2022-12-29T17:50:24.289Z,8.40
2022-12-29T17:53:00.670Z,8.40
2022-12-29T17:55:37.295Z,8.70
2022-12-29T17:58:18.592Z,8.70
2022-12-29T18:00:47.973Z,8.70
2022-12-29T18:03:18.865Z,8.70
2022-12-29T18:05:49.895Z,8.80
2022-12-29T18:08:18.093Z,8.80
2022-12-29T18:10:47.460Z,8.80
2022-12-29T18:13:24.148Z,8.80
2022-12-29T18:15:53.571Z,9.00
2022-12-29T18:18:24.642Z,8.90
2022-12-29T18:21:00.396Z,8.80
2022-12-29T18:23:32.351Z,8.70
2022-12-29T18:26:05.856Z,8.80
2022-12-29T18:28:34.007Z,8.80
2022-12-29T18:31:03.344Z,8.80
2022-12-29T18:33:31.688Z,8.80
2022-12-29T18:36:03.939Z,8.80
2022-12-29T18:38:32.894Z,8.80
2022-12-29T18:41:01.228Z,8.70
2022-12-29T18:43:29.268Z,8.70
2022-12-29T18:45:57.337Z,8.90
2022-12-29T18:48:25.373Z,9.00
2022-12-29T18:50:53.803Z,8.90
2022-12-29T18:53:26.253Z,8.80
2022-12-29T18:55:57.427Z,8.90
2022-12-29T18:58:32.256Z,8.90
2022-12-29T19:01:02.700Z,8.80
2022-12-29T19:03:31.492Z,8.70
2022-12-29T19:06:00.190Z,8.90
2022-12-29T19:08:29.608Z,8.60
2022-12-29T19:10:57.744Z,8.50
2022-12-29T19:13:29.335Z,8.50
2022-12-29T19:16:00.049Z,8.40
2022-12-29T19:18:43.484Z,8.40
2022-12-29T19:21:12.187Z,8.40
2022-12-29T19:23:41.652Z,8.20
2022-12-29T19:26:31.765Z,8.00
2022-12-29T19:29:01.276Z,8.00
2022-12-29T19:31:29.802Z,7.90
2022-12-29T19:33:58.019Z,7.90
2022-12-29T19:36:26.093Z,7.80
2022-12-29T19:38:55.886Z,7.80
2022-12-29T19:41:25.401Z,7.60
2022-12-29T19:43:53.426Z,7.50
2022-12-29T19:46:23.197Z,7.40
2022-12-29T19:48:51.789Z,7.60
2022-12-29T19:51:20.354Z,7.60
2022-12-29T19:53:48.701Z,7.60
2022-12-29T19:56:18.911Z,7.60
2022-12-29T19:58:47.906Z,7.40
2022-12-29T20:01:19.252Z,7.50
2022-12-29T20:03:48.421Z,7.40
2022-12-29T20:06:18.663Z,7.40
2022-12-29T20:08:46.839Z,7.40
2022-12-29T20:11:19.808Z,7.40
2022-12-29T20:13:48.666Z,7.50
2022-12-29T20:16:20.361Z,7.60
2022-12-29T20:18:49.895Z,7.50
2022-12-29T20:21:20.965Z,7.40
2022-12-29T20:23:50.093Z,7.40
2022-12-29T20:26:22.785Z,7.40
2022-12-29T20:28:52.988Z,7.30
2022-12-29T20:31:26.238Z,7.30
2022-12-29T20:33:55.005Z,7.30
2022-12-29T20:36:29.355Z,7.40
2022-12-29T20:39:00.868Z,7.30
2022-12-29T20:41:31.340Z,7.30
2022-12-29T20:43:59.716Z,7.50
2022-12-29T20:46:33.961Z,7.50
2022-12-29T20:49:05.933Z,7.70
2022-12-29T20:52:04.087Z,7.80
2022-12-29T20:54:23.178Z,7.90
2022-12-29T20:56:53.440Z,7.70
2022-12-29T20:59:29.749Z,7.60
2022-12-29T21:01:58.678Z,7.50
2022-12-29T21:04:27.237Z,7.40
2022-12-29T21:06:55.924Z,7.20
2022-12-29T21:09:24.186Z,7.00
2022-12-29T21:11:53.849Z,6.90
2022-12-29T21:14:22.049Z,6.80
2022-12-29T21:16:50.275Z,6.80
2022-12-29T21:19:18.468Z,6.80
2022-12-29T21:21:48.149Z,6.80
2022-12-29T21:24:16.435Z,6.90
2022-12-29T21:26:44.692Z,6.90
2022-12-29T21:29:17.055Z,6.90
2022-12-29T21:31:48.566Z,6.80
2022-12-29T21:34:17.441Z,6.80
2022-12-29T21:36:45.649Z,6.70
2022-12-29T21:39:16.527Z,6.60
2022-12-29T21:41:45.381Z,6.60
2022-12-29T21:44:32.603Z,6.70
2022-12-29T21:47:02.745Z,6.70
2022-12-29T21:49:31.135Z,6.60
2022-12-29T21:51:59.263Z,6.50
2022-12-29T21:54:52.999Z,6.40
2022-12-29T21:57:35.304Z,6.40
2022-12-29T22:00:27.057Z,6.20
2022-12-29T22:03:21.974Z,6.10
2022-12-29T22:06:09.761Z,6.00
2022-12-29T22:08:55.842Z,5.90
2022-12-29T22:11:42.395Z,5.90
2022-12-29T22:14:10.968Z,5.90
2022-12-29T22:16:40.615Z,5.80
2022-12-29T22:19:10.568Z,5.70
2022-12-29T22:21:38.961Z,5.80
2022-12-29T22:24:08.707Z,5.70
2022-12-29T22:26:36.839Z,5.80
2022-12-29T22:29:12.541Z,5.70
2022-12-29T22:31:42.116Z,5.70
2022-12-29T22:34:10.971Z,5.60
2022-12-29T22:36:39.739Z,5.60
2022-12-29T22:39:07.849Z,5.50
2022-12-29T22:41:35.941Z,5.40
2022-12-29T22:44:05.210Z,5.30
2022-12-29T22:46:33.814Z,5.20
2022-12-29T22:49:03.534Z,5.20
2022-12-29T22:51:31.843Z,5.00
2022-12-29T22:54:00.135Z,4.70
2022-12-29T22:56:28.377Z,4.70
2022-12-29T22:58:56.572Z,4.70
2022-12-29T23:01:24.875Z,4.70
2022-12-29T23:03:53.099Z,4.80
2022-12-29T23:06:22.615Z,4.70
2022-12-29T23:08:50.832Z,4.60
2022-12-29T23:11:19.200Z,4.60
2022-12-29T23:13:47.450Z,4.60
2022-12-29T23:16:17.109Z,4.60
2022-12-29T23:18:47.095Z,4.50
2022-12-29T23:21:17.204Z,4.40
2022-12-29T23:23:57.081Z,4.40
2022-12-29T23:26:33.294Z,4.30
2022-12-29T23:29:23.197Z,4.00
2022-12-29T23:31:53.223Z,3.90
2022-12-29T23:34:21.443Z,3.90
2022-12-29T23:36:51.325Z,4.00
2022-12-29T23:39:24.848Z,3.90
2022-12-29T23:41:56.137Z,3.70
2022-12-29T23:44:24.298Z,3.70
2022-12-29T23:46:52.820Z,3.70
2022-12-29T23:49:21.040Z,3.90
2022-12-29T23:51:50.564Z,4.00
2022-12-29T23:54:19.079Z,4.00
2022-12-29T23:56:48.984Z,4.00
2022-12-29T23:59:17.000Z,4.10
